SCOC weather

Las Araucarias Airport
Puerto Octay, Los Lagos Region, Chile

Public forecast

Using degrees Celsius for public forecast. Weather courtesy of forecast.io.

Closest aviation weather report (METAR) to Las Araucarias Airport

Closest report is Cañal Bajo Carlos - Hott Siebert Airport, 29.3 nm (54.3 km) NW. Retrieved 2020/04/09 04:41 UTC (0 seconds ago):

SCJO 090441Z AUTO 00000KT 0700 FG FEW004/// 05/05 Q////

Closest aviation forecast (TAF) to Las Araucarias Airport

Forecast is more than 12 hours old.

Closest forecast is Cañal Bajo Carlos - Hott Siebert Airport, 29.3 nm (54.3 km) NW. Retrieved 2020/04/08 12:33 UTC (16 hours ago):

TAF SCJO 081029Z 0812/0824 VRB02KT 0800 FG VV001 TN01/0812Z TX22/0819Z TEMPO 0812/0813 5000 BR BKN007 BECMG 0813/0815 9999 NSW FEW010 BECMG 0816/0818 CAVOK